Time,TemperatureF,DewpointF,PressureIn,WindDirection,WindDirectionDegrees,WindSpeedMPH,WindSpeedGustMPH,Humidity,HourlyPrecipIn,Conditions,Clouds,dailyrainin,SolarRadiationWatts/m^2,SoftwareType,DateUTC
2013-03-10 00:11:00,68.0,64.0,30.26,SW,235,11.0,18.0,86,0.00,,,0.00,0.000000,,2013-03-10 10:11:00,
2013-03-10 00:21:00,68.0,64.0,30.26,SW,235,11.0,18.0,86,0.00,,,0.00,0.000000,,2013-03-10 10:21:00,
2013-03-10 00:32:00,68.0,64.0,30.26,SW,235,11.0,18.0,86,0.00,,,0.00,0.000000,,2013-03-10 10:32:00,
2013-03-10 00:41:00,68.0,64.0,30.26,SW,235,11.0,18.0,86,0.00,,,0.00,0.000000,,2013-03-10 10:41:00,
2013-03-10 00:51:00,68.0,64.0,30.26,SW,235,11.0,18.0,86,0.00,,,0.00,0.000000,,2013-03-10 10:51:00,
2013-03-10 01:21:00,67.0,65.0,30.26,WSW,244,15.0,26.0,94,0.01,,,0.01,0.000000,,2013-03-10 11:21:00,
2013-03-10 01:31:00,67.0,65.0,30.26,WSW,244,15.0,26.0,94,0.01,,,0.01,0.000000,,2013-03-10 11:31:00,
2013-03-10 01:42:00,67.0,65.0,30.26,WSW,244,15.0,26.0,94,0.01,,,0.01,0.000000,,2013-03-10 11:42:00,
2013-03-10 01:52:00,67.0,65.0,30.26,WSW,244,15.0,26.0,94,0.01,,,0.01,0.000000,,2013-03-10 11:52:00,
2013-03-10 04:21:00,68.0,61.0,30.21,SW,229,4.0,19.0,77,-99.99,,,0.01,0.000000,,2013-03-10 14:21:00,
2013-03-10 04:32:00,68.0,61.0,30.21,SW,229,4.0,19.0,77,-99.99,,,0.01,0.000000,,2013-03-10 14:32:00,
2013-03-10 04:41:00,68.0,61.0,30.21,SW,229,4.0,19.0,77,-99.99,,,0.01,0.000000,,2013-03-10 14:41:00,
2013-03-10 04:51:00,68.0,61.0,30.21,SW,229,4.0,19.0,77,-99.99,,,0.01,0.000000,,2013-03-10 14:51:00,
2013-03-10 05:21:00,69.0,63.0,30.21,South,186,7.0,20.0,80,0.00,,,0.01,0.000000,,2013-03-10 15:21:00,
2013-03-10 05:31:00,69.0,63.0,30.21,South,186,7.0,20.0,80,0.00,,,0.01,0.000000,,2013-03-10 15:31:00,
2013-03-10 05:42:00,69.0,63.0,30.21,South,186,7.0,20.0,80,0.00,,,0.01,0.000000,,2013-03-10 15:42:00,
2013-03-10 05:51:00,69.0,63.0,30.21,South,186,7.0,20.0,80,0.00,,,0.01,0.000000,,2013-03-10 15:51:00,
2013-03-10 06:21:00,68.0,64.0,30.22,SSE,150,5.0,17.0,86,0.00,,,0.01,0.000000,,2013-03-10 16:21:00,
2013-03-10 06:31:00,68.0,64.0,30.22,SSE,150,5.0,17.0,86,0.00,,,0.01,0.000000,,2013-03-10 16:31:00,
2013-03-10 06:41:00,68.0,64.0,30.22,SSE,150,5.0,17.0,86,0.00,,,0.01,0.000000,,2013-03-10 16:41:00,
2013-03-10 06:51:00,68.0,64.0,30.22,SSE,150,5.0,17.0,86,0.00,,,0.01,0.000000,,2013-03-10 16:51:00,
2013-03-10 08:11:00,66.0,63.0,30.25,SSE,150,3.0,23.0,90,-99.99,,,0.01,1.000000,,2013-03-10 18:11:00,
2013-03-10 08:21:00,66.0,63.0,30.25,SSE,150,3.0,23.0,90,-99.99,,,0.01,1.000000,,2013-03-10 18:21:00,
2013-03-10 08:31:00,66.0,63.0,30.25,SSE,150,3.0,23.0,90,-99.99,,,0.01,1.000000,,2013-03-10 18:31:00,
2013-03-10 08:41:00,66.0,63.0,30.25,SSE,150,3.0,23.0,90,-99.99,,,0.01,1.000000,,2013-03-10 18:41:00,
2013-03-10 08:52:00,66.0,63.0,30.25,SSE,150,3.0,23.0,90,-99.99,,,0.01,1.000000,,2013-03-10 18:52:00,
2013-03-10 09:21:00,70.0,66.0,30.27,SW,225,3.0,11.0,88,0.00,,,0.01,42.000000,,2013-03-10 19:21:00,
2013-03-10 09:31:00,70.0,66.0,30.27,SW,225,3.0,11.0,88,0.00,,,0.01,42.000000,,2013-03-10 19:31:00,
2013-03-10 09:41:00,70.0,66.0,30.27,SW,225,3.0,11.0,88,0.00,,,0.01,42.000000,,2013-03-10 19:41:00,
2013-03-10 09:52:00,70.0,66.0,30.27,SW,225,3.0,11.0,88,0.00,,,0.01,42.000000,,2013-03-10 19:52:00,
2013-03-10 10:12:00,69.0,66.0,30.27,SSW,193,7.0,20.0,91,0.00,,,0.01,168.000000,,2013-03-10 20:12:00,
2013-03-10 10:22:00,69.0,66.0,30.27,SSW,193,7.0,20.0,91,0.00,,,0.01,168.000000,,2013-03-10 20:22:00,
2013-03-10 10:32:00,69.0,66.0,30.27,SSW,193,7.0,20.0,91,0.00,,,0.01,168.000000,,2013-03-10 20:32:00,
2013-03-10 10:42:00,69.0,66.0,30.27,SSW,193,7.0,20.0,91,0.00,,,0.01,168.000000,,2013-03-10 20:42:00,
2013-03-10 10:52:00,69.0,66.0,30.27,SSW,193,7.0,20.0,91,0.00,,,0.01,168.000000,,2013-03-10 20:52:00,
2013-03-10 11:22:00,74.0,69.0,30.28,SW,217,12.0,21.0,84,0.00,,,0.01,162.000000,,2013-03-10 21:22:00,
2013-03-10 11:32:00,74.0,69.0,30.28,SW,217,12.0,21.0,84,0.00,,,0.01,162.000000,,2013-03-10 21:32:00,
2013-03-10 11:42:00,74.0,69.0,30.28,SW,217,12.0,21.0,84,0.00,,,0.01,162.000000,,2013-03-10 21:42:00,
2013-03-10 11:52:00,74.0,69.0,30.28,SW,217,12.0,21.0,84,0.00,,,0.01,162.000000,,2013-03-10 21:52:00,
2013-03-10 12:12:00,75.0,68.0,30.26,SW,216,12.0,22.0,80,0.00,,,0.01,580.000000,,2013-03-10 22:12:00,
2013-03-10 12:22:00,75.0,68.0,30.26,SW,216,12.0,22.0,80,0.00,,,0.01,580.000000,,2013-03-10 22:22:00,
2013-03-10 12:32:00,75.0,68.0,30.26,SW,216,12.0,22.0,80,0.00,,,0.01,580.000000,,2013-03-10 22:32:00,
2013-03-10 12:42:00,75.0,68.0,30.26,SW,216,12.0,22.0,80,0.00,,,0.01,580.000000,,2013-03-10 22:42:00,
2013-03-10 12:52:00,75.0,68.0,30.26,SW,216,12.0,22.0,80,0.00,,,0.01,580.000000,,2013-03-10 22:52:00,
2013-03-10 13:12:00,76.0,69.0,30.24,SW,217,13.0,22.0,80,0.00,,,0.01,743.000000,,2013-03-10 23:12:00,
2013-03-10 13:22:00,76.0,69.0,30.24,SW,217,13.0,22.0,80,0.00,,,0.01,743.000000,,2013-03-10 23:22:00,
2013-03-10 13:32:00,76.0,69.0,30.24,SW,217,13.0,22.0,80,0.00,,,0.01,743.000000,,2013-03-10 23:32:00,
2013-03-10 13:42:00,76.0,69.0,30.24,SW,217,13.0,22.0,80,0.00,,,0.01,743.000000,,2013-03-10 23:42:00,
2013-03-10 13:51:00,76.0,69.0,30.24,SW,217,13.0,22.0,80,0.00,,,0.01,743.000000,,2013-03-10 23:51:00,
2013-03-10 14:12:00,76.0,69.0,30.22,SSW,205,12.0,21.0,79,0.00,,,0.01,717.000000,,2013-03-11 00:12:00,
2013-03-10 14:22:00,76.0,69.0,30.22,SSW,205,12.0,21.0,79,0.00,,,0.01,717.000000,,2013-03-11 00:22:00,
2013-03-10 14:32:00,76.0,69.0,30.22,SSW,205,12.0,21.0,79,0.00,,,0.01,717.000000,,2013-03-11 00:32:00,
2013-03-10 14:42:00,76.0,69.0,30.22,SSW,205,12.0,21.0,79,0.00,,,0.01,717.000000,,2013-03-11 00:42:00,
2013-03-10 14:52:00,76.0,69.0,30.22,SSW,205,12.0,21.0,79,0.00,,,0.01,717.000000,,2013-03-11 00:52:00,
2013-03-10 15:12:00,73.0,67.0,30.20,SSW,210,11.0,20.0,81,0.00,,,0.01,639.000000,,2013-03-11 01:12:00,
2013-03-10 15:22:00,73.0,67.0,30.20,SSW,210,11.0,20.0,81,0.00,,,0.01,639.000000,,2013-03-11 01:22:00,
2013-03-10 15:32:00,73.0,67.0,30.20,SSW,210,11.0,20.0,81,0.00,,,0.01,639.000000,,2013-03-11 01:32:00,
2013-03-10 15:42:00,73.0,67.0,30.20,SSW,210,11.0,20.0,81,0.00,,,0.01,639.000000,,2013-03-11 01:42:00,
2013-03-10 15:52:00,73.0,67.0,30.20,SSW,210,11.0,20.0,81,0.00,,,0.01,639.000000,,2013-03-11 01:52:00,
2013-03-10 16:22:00,73.0,67.0,30.21,SW,219,12.0,22.0,81,0.00,,,0.01,545.000000,,2013-03-11 02:22:00,
2013-03-10 16:32:00,73.0,67.0,30.21,SW,219,12.0,22.0,81,0.00,,,0.01,545.000000,,2013-03-11 02:32:00,
2013-03-10 16:42:00,73.0,67.0,30.21,SW,219,12.0,22.0,81,0.00,,,0.01,545.000000,,2013-03-11 02:42:00,
2013-03-10 16:52:00,73.0,67.0,30.21,SW,219,12.0,22.0,81,0.00,,,0.01,545.000000,,2013-03-11 02:52:00,
2013-03-10 17:12:00,72.0,67.0,30.22,SW,236,13.0,22.0,83,0.00,,,0.01,423.000000,,2013-03-11 03:12:00,
2013-03-10 17:22:00,72.0,67.0,30.22,SW,236,13.0,22.0,83,0.00,,,0.01,423.000000,,2013-03-11 03:22:00,
2013-03-10 17:32:00,72.0,67.0,30.22,SW,236,13.0,22.0,83,0.00,,,0.01,423.000000,,2013-03-11 03:32:00,
2013-03-10 17:42:00,72.0,67.0,30.22,SW,236,13.0,22.0,83,0.00,,,0.01,423.000000,,2013-03-11 03:42:00,
2013-03-10 17:51:00,72.0,67.0,30.22,SW,236,13.0,22.0,83,0.00,,,0.01,423.000000,,2013-03-11 03:51:00,
2013-03-10 18:12:00,73.0,68.0,30.23,SW,231,11.0,19.0,84,0.00,,,0.01,221.000000,,2013-03-11 04:12:00,
2013-03-10 18:22:00,73.0,68.0,30.23,SW,231,11.0,19.0,84,0.00,,,0.01,221.000000,,2013-03-11 04:22:00,
2013-03-10 18:32:00,73.0,68.0,30.23,SW,231,11.0,19.0,84,0.00,,,0.01,221.000000,,2013-03-11 04:32:00,
2013-03-10 18:42:00,73.0,68.0,30.23,SW,231,11.0,19.0,84,0.00,,,0.01,221.000000,,2013-03-11 04:42:00,
2013-03-10 18:52:00,73.0,68.0,30.23,SW,231,11.0,19.0,84,0.00,,,0.01,221.000000,,2013-03-11 04:52:00,
2013-03-10 19:22:00,71.0,66.0,30.24,SW,236,11.0,19.0,85,0.00,,,0.01,90.000000,,2013-03-11 05:22:00,
2013-03-10 19:32:00,71.0,66.0,30.24,SW,236,11.0,19.0,85,0.00,,,0.01,90.000000,,2013-03-11 05:32:00,
2013-03-10 19:42:00,71.0,66.0,30.24,SW,236,11.0,19.0,85,0.00,,,0.01,90.000000,,2013-03-11 05:42:00,
2013-03-10 19:52:00,71.0,66.0,30.24,SW,236,11.0,19.0,85,0.00,,,0.01,90.000000,,2013-03-11 05:52:00,
2013-03-10 20:12:00,68.0,64.0,30.27,NW,309,15.0,21.0,88,0.00,,,0.01,15.000000,,2013-03-11 06:12:00,
2013-03-10 20:22:00,68.0,64.0,30.27,NW,309,15.0,21.0,88,0.00,,,0.01,15.000000,,2013-03-11 06:22:00,
2013-03-10 20:32:00,68.0,64.0,30.27,NW,309,15.0,21.0,88,0.00,,,0.01,15.000000,,2013-03-11 06:32:00,
2013-03-10 20:42:00,68.0,64.0,30.27,NW,309,15.0,21.0,88,0.00,,,0.01,15.000000,,2013-03-11 06:42:00,
2013-03-10 20:52:00,68.0,64.0,30.27,NW,309,15.0,21.0,88,0.00,,,0.01,15.000000,,2013-03-11 06:52:00,
2013-03-10 21:12:00,68.0,64.0,30.30,NW,314,14.0,24.0,88,0.00,,,0.01,0.000000,,2013-03-11 07:12:00,
2013-03-10 21:22:00,68.0,64.0,30.30,NW,314,14.0,24.0,88,0.00,,,0.01,0.000000,,2013-03-11 07:22:00,
2013-03-10 21:32:00,68.0,64.0,30.30,NW,314,14.0,24.0,88,0.00,,,0.01,0.000000,,2013-03-11 07:32:00,
2013-03-10 21:42:00,68.0,64.0,30.30,NW,314,14.0,24.0,88,0.00,,,0.01,0.000000,,2013-03-11 07:42:00,
2013-03-10 21:52:00,68.0,64.0,30.30,NW,314,14.0,24.0,88,0.00,,,0.01,0.000000,,2013-03-11 07:52:00,
2013-03-10 22:22:00,69.0,65.0,30.31,NW,321,14.0,19.0,86,0.00,,,0.01,0.000000,,2013-03-11 08:22:00,
2013-03-10 22:32:00,69.0,65.0,30.31,NW,321,14.0,19.0,86,0.00,,,0.01,0.000000,,2013-03-11 08:32:00,
2013-03-10 22:42:00,69.0,65.0,30.31,NW,321,14.0,19.0,86,0.00,,,0.01,0.000000,,2013-03-11 08:42:00,
2013-03-10 22:51:00,69.0,65.0,30.31,NW,321,14.0,19.0,86,0.00,,,0.01,0.000000,,2013-03-11 08:51:00,
2013-03-10 23:12:00,68.0,63.0,30.32,NW,318,11.0,18.0,85,0.00,,,0.01,0.000000,,2013-03-11 09:12:00,
2013-03-10 23:22:00,68.0,63.0,30.32,NW,318,11.0,18.0,85,0.00,,,0.01,0.000000,,2013-03-11 09:22:00,
2013-03-10 23:32:00,68.0,63.0,30.32,NW,318,11.0,18.0,85,0.00,,,0.01,0.000000,,2013-03-11 09:32:00,
2013-03-10 23:42:00,68.0,63.0,30.32,NW,318,11.0,18.0,85,0.00,,,0.01,0.000000,,2013-03-11 09:42:00,
2013-03-10 23:52:00,68.0,63.0,30.32,NW,318,11.0,18.0,85,0.00,,,0.01,0.000000,,2013-03-11 09:52:00,